sensor_id;sensor_type;location;lat;lon;timestamp;P1;durP1;ratioP1;P2;durP2;ratioP2
68806;SDS011;55800;54.272;18.558;2023-08-20T00:00:19;32.90;;;24.88;;
68806;SDS011;55800;54.272;18.558;2023-08-20T00:03:10;31.58;;;24.25;;
68806;SDS011;55800;54.272;18.558;2023-08-20T00:05:41;31.48;;;24.60;;
68806;SDS011;55800;54.272;18.558;2023-08-20T00:08:10;31.38;;;23.45;;
68806;SDS011;55800;54.272;18.558;2023-08-20T00:10:40;30.17;;;24.55;;
68806;SDS011;55800;54.272;18.558;2023-08-20T00:13:11;29.60;;;24.85;;
68806;SDS011;55800;54.272;18.558;2023-08-20T00:15:41;28.70;;;23.67;;
68806;SDS011;55800;54.272;18.558;2023-08-20T00:18:11;28.55;;;24.15;;
68806;SDS011;55800;54.272;18.558;2023-08-20T00:20:42;31.67;;;23.63;;
68806;SDS011;55800;54.272;18.558;2023-08-20T00:23:12;30.10;;;23.33;;
68806;SDS011;55800;54.272;18.558;2023-08-20T00:25:43;29.38;;;23.65;;
68806;SDS011;55800;54.272;18.558;2023-08-20T00:28:14;27.88;;;23.30;;
68806;SDS011;55800;54.272;18.558;2023-08-20T00:30:45;28.27;;;21.55;;
68806;SDS011;55800;54.272;18.558;2023-08-20T00:33:16;31.10;;;22.58;;
68806;SDS011;55800;54.272;18.558;2023-08-20T00:35:46;27.30;;;21.58;;
68806;SDS011;55800;54.272;18.558;2023-08-20T00:38:15;25.77;;;21.60;;
68806;SDS011;55800;54.272;18.558;2023-08-20T00:40:45;29.80;;;23.08;;
68806;SDS011;55800;54.272;18.558;2023-08-20T00:43:15;29.15;;;23.08;;
68806;SDS011;55800;54.272;18.558;2023-08-20T00:45:45;29.48;;;23.77;;
68806;SDS011;55800;54.272;18.558;2023-08-20T00:48:14;32.95;;;24.80;;
68806;SDS011;55800;54.272;18.558;2023-08-20T00:50:45;30.20;;;23.92;;
68806;SDS011;55800;54.272;18.558;2023-08-20T00:53:16;32.08;;;24.52;;
68806;SDS011;55800;54.272;18.558;2023-08-20T00:55:47;36.92;;;26.15;;
68806;SDS011;55800;54.272;18.558;2023-08-20T00:58:18;30.77;;;24.40;;
68806;SDS011;55800;54.272;18.558;2023-08-20T01:00:48;31.42;;;22.92;;
68806;SDS011;55800;54.272;18.558;2023-08-20T01:03:18;32.28;;;25.63;;
68806;SDS011;55800;54.272;18.558;2023-08-20T01:05:50;33.33;;;25.48;;
68806;SDS011;55800;54.272;18.558;2023-08-20T01:08:29;35.85;;;25.65;;
68806;SDS011;55800;54.272;18.558;2023-08-20T01:11:06;37.78;;;28.85;;
68806;SDS011;55800;54.272;18.558;2023-08-20T01:13:45;32.55;;;26.70;;
68806;SDS011;55800;54.272;18.558;2023-08-20T01:16:15;35.00;;;27.58;;
68806;SDS011;55800;54.272;18.558;2023-08-20T01:18:44;36.67;;;28.80;;
68806;SDS011;55800;54.272;18.558;2023-08-20T01:21:18;36.83;;;27.77;;
68806;SDS011;55800;54.272;18.558;2023-08-20T01:24:01;40.78;;;30.58;;
68806;SDS011;55800;54.272;18.558;2023-08-20T01:26:56;37.35;;;26.00;;
68806;SDS011;55800;54.272;18.558;2023-08-20T01:29:38;31.30;;;24.10;;
68806;SDS011;55800;54.272;18.558;2023-08-20T01:32:08;29.05;;;22.95;;
68806;SDS011;55800;54.272;18.558;2023-08-20T01:34:40;27.27;;;21.77;;
68806;SDS011;55800;54.272;18.558;2023-08-20T01:37:12;27.92;;;23.23;;
68806;SDS011;55800;54.272;18.558;2023-08-20T01:39:41;28.70;;;23.85;;
68806;SDS011;55800;54.272;18.558;2023-08-20T01:42:10;28.00;;;21.80;;
68806;SDS011;55800;54.272;18.558;2023-08-20T01:44:41;30.33;;;24.52;;
68806;SDS011;55800;54.272;18.558;2023-08-20T01:47:11;28.55;;;22.77;;
68806;SDS011;55800;54.272;18.558;2023-08-20T01:49:40;29.73;;;22.63;;
68806;SDS011;55800;54.272;18.558;2023-08-20T01:52:10;25.05;;;20.33;;
68806;SDS011;55800;54.272;18.558;2023-08-20T01:54:39;25.75;;;21.05;;
68806;SDS011;55800;54.272;18.558;2023-08-20T01:57:09;29.08;;;20.50;;
68806;SDS011;55800;54.272;18.558;2023-08-20T01:59:39;28.88;;;22.63;;
68806;SDS011;55800;54.272;18.558;2023-08-20T02:02:10;28.35;;;21.42;;
68806;SDS011;55800;54.272;18.558;2023-08-20T02:04:39;28.20;;;22.23;;
68806;SDS011;55800;54.272;18.558;2023-08-20T02:07:08;35.03;;;23.70;;
68806;SDS011;55800;54.272;18.558;2023-08-20T02:09:38;30.95;;;24.42;;
68806;SDS011;55800;54.272;18.558;2023-08-20T02:12:07;29.48;;;24.00;;
68806;SDS011;55800;54.272;18.558;2023-08-20T02:14:38;30.55;;;23.20;;
68806;SDS011;55800;54.272;18.558;2023-08-20T02:17:09;26.15;;;21.77;;
68806;SDS011;55800;54.272;18.558;2023-08-20T02:19:39;28.10;;;21.42;;
68806;SDS011;55800;54.272;18.558;2023-08-20T02:22:09;29.83;;;22.33;;
68806;SDS011;55800;54.272;18.558;2023-08-20T02:24:38;31.27;;;21.92;;
68806;SDS011;55800;54.272;18.558;2023-08-20T02:27:08;27.40;;;21.92;;
68806;SDS011;55800;54.272;18.558;2023-08-20T02:29:37;29.27;;;20.70;;
68806;SDS011;55800;54.272;18.558;2023-08-20T02:32:08;28.25;;;21.33;;
68806;SDS011;55800;54.272;18.558;2023-08-20T02:34:37;26.27;;;18.23;;
68806;SDS011;55800;54.272;18.558;2023-08-20T02:37:07;28.48;;;21.23;;
68806;SDS011;55800;54.272;18.558;2023-08-20T02:39:36;26.92;;;20.73;;
68806;SDS011;55800;54.272;18.558;2023-08-20T02:42:08;22.42;;;18.70;;
68806;SDS011;55800;54.272;18.558;2023-08-20T02:44:37;28.27;;;20.45;;
68806;SDS011;55800;54.272;18.558;2023-08-20T02:47:08;23.58;;;19.13;;
68806;SDS011;55800;54.272;18.558;2023-08-20T02:49:37;23.02;;;18.52;;
68806;SDS011;55800;54.272;18.558;2023-08-20T02:52:07;23.92;;;18.58;;
68806;SDS011;55800;54.272;18.558;2023-08-20T02:54:36;22.02;;;17.85;;
68806;SDS011;55800;54.272;18.558;2023-08-20T02:57:05;23.05;;;18.77;;
68806;SDS011;55800;54.272;18.558;2023-08-20T02:59:35;22.48;;;17.50;;
68806;SDS011;55800;54.272;18.558;2023-08-20T03:02:04;23.90;;;17.90;;
68806;SDS011;55800;54.272;18.558;2023-08-20T03:04:35;24.05;;;19.92;;
68806;SDS011;55800;54.272;18.558;2023-08-20T03:07:05;24.02;;;18.77;;
68806;SDS011;55800;54.272;18.558;2023-08-20T03:09:34;26.23;;;18.42;;
68806;SDS011;55800;54.272;18.558;2023-08-20T03:12:04;21.85;;;16.40;;
68806;SDS011;55800;54.272;18.558;2023-08-20T03:14:34;19.13;;;16.42;;
68806;SDS011;55800;54.272;18.558;2023-08-20T03:17:03;25.70;;;17.48;;
68806;SDS011;55800;54.272;18.558;2023-08-20T03:19:33;21.80;;;17.58;;
68806;SDS011;55800;54.272;18.558;2023-08-20T03:22:04;22.80;;;17.23;;
68806;SDS011;55800;54.272;18.558;2023-08-20T03:24:33;25.83;;;19.85;;
68806;SDS011;55800;54.272;18.558;2023-08-20T03:27:03;27.50;;;20.00;;
68806;SDS011;55800;54.272;18.558;2023-08-20T03:29:33;25.75;;;20.48;;
68806;SDS011;55800;54.272;18.558;2023-08-20T03:32:04;24.45;;;19.70;;
68806;SDS011;55800;54.272;18.558;2023-08-20T03:34:33;25.98;;;20.88;;
68806;SDS011;55800;54.272;18.558;2023-08-20T03:37:06;28.00;;;21.70;;
68806;SDS011;55800;54.272;18.558;2023-08-20T03:39:35;29.33;;;21.83;;
68806;SDS011;55800;54.272;18.558;2023-08-20T03:42:05;28.92;;;21.73;;
68806;SDS011;55800;54.272;18.558;2023-08-20T03:44:34;23.92;;;17.92;;
68806;SDS011;55800;54.272;18.558;2023-08-20T03:47:03;27.95;;;18.60;;
68806;SDS011;55800;54.272;18.558;2023-08-20T03:49:37;25.65;;;18.38;;
68806;SDS011;55800;54.272;18.558;2023-08-20T03:52:06;24.50;;;17.98;;
68806;SDS011;55800;54.272;18.558;2023-08-20T03:54:36;20.60;;;17.10;;
68806;SDS011;55800;54.272;18.558;2023-08-20T03:57:05;22.45;;;18.23;;
68806;SDS011;55800;54.272;18.558;2023-08-20T03:59:34;26.58;;;19.33;;
68806;SDS011;55800;54.272;18.558;2023-08-20T04:02:04;25.80;;;21.65;;
68806;SDS011;55800;54.272;18.558;2023-08-20T04:04:33;28.15;;;20.80;;
68806;SDS011;55800;54.272;18.558;2023-08-20T04:07:05;29.98;;;22.58;;
68806;SDS011;55800;54.272;18.558;2023-08-20T04:09:34;26.42;;;21.73;;
68806;SDS011;55800;54.272;18.558;2023-08-20T04:12:05;29.15;;;22.13;;
68806;SDS011;55800;54.272;18.558;2023-08-20T04:14:36;26.88;;;21.67;;
68806;SDS011;55800;54.272;18.558;2023-08-20T04:17:06;23.92;;;19.20;;
68806;SDS011;55800;54.272;18.558;2023-08-20T04:19:35;23.30;;;18.52;;
68806;SDS011;55800;54.272;18.558;2023-08-20T04:22:06;25.77;;;19.25;;
68806;SDS011;55800;54.272;18.558;2023-08-20T04:24:35;23.85;;;20.10;;
68806;SDS011;55800;54.272;18.558;2023-08-20T04:27:06;24.63;;;18.80;;
68806;SDS011;55800;54.272;18.558;2023-08-20T04:29:39;24.77;;;19.77;;
68806;SDS011;55800;54.272;18.558;2023-08-20T04:32:09;23.35;;;19.00;;
68806;SDS011;55800;54.272;18.558;2023-08-20T04:34:39;25.75;;;19.67;;
68806;SDS011;55800;54.272;18.558;2023-08-20T04:37:09;25.73;;;19.65;;
68806;SDS011;55800;54.272;18.558;2023-08-20T04:39:39;25.60;;;20.80;;
68806;SDS011;55800;54.272;18.558;2023-08-20T04:42:09;26.55;;;20.58;;
68806;SDS011;55800;54.272;18.558;2023-08-20T04:44:38;25.08;;;20.08;;
68806;SDS011;55800;54.272;18.558;2023-08-20T04:47:10;26.98;;;22.15;;
68806;SDS011;55800;54.272;18.558;2023-08-20T04:49:40;24.33;;;20.45;;
68806;SDS011;55800;54.272;18.558;2023-08-20T04:52:11;24.83;;;20.33;;
68806;SDS011;55800;54.272;18.558;2023-08-20T04:54:40;30.85;;;20.88;;
68806;SDS011;55800;54.272;18.558;2023-08-20T04:57:10;24.83;;;20.35;;
68806;SDS011;55800;54.272;18.558;2023-08-20T04:59:39;25.05;;;17.67;;
68806;SDS011;55800;54.272;18.558;2023-08-20T05:02:39;21.30;;;17.77;;
68806;SDS011;55800;54.272;18.558;2023-08-20T05:05:12;21.70;;;18.48;;
68806;SDS011;55800;54.272;18.558;2023-08-20T05:07:44;21.88;;;18.80;;
68806;SDS011;55800;54.272;18.558;2023-08-20T05:10:13;23.38;;;19.77;;
68806;SDS011;55800;54.272;18.558;2023-08-20T05:12:44;24.45;;;18.55;;
68806;SDS011;55800;54.272;18.558;2023-08-20T05:15:13;25.27;;;18.92;;
68806;SDS011;55800;54.272;18.558;2023-08-20T05:17:43;23.65;;;18.83;;
68806;SDS011;55800;54.272;18.558;2023-08-20T05:20:13;23.67;;;20.08;;
68806;SDS011;55800;54.272;18.558;2023-08-20T05:22:45;23.77;;;18.55;;
68806;SDS011;55800;54.272;18.558;2023-08-20T05:25:14;28.15;;;19.20;;
68806;SDS011;55800;54.272;18.558;2023-08-20T05:27:43;25.90;;;19.77;;
68806;SDS011;55800;54.272;18.558;2023-08-20T05:30:13;22.25;;;18.20;;
68806;SDS011;55800;54.272;18.558;2023-08-20T05:32:43;26.27;;;21.02;;
68806;SDS011;55800;54.272;18.558;2023-08-20T05:35:12;26.25;;;21.83;;
68806;SDS011;55800;54.272;18.558;2023-08-20T05:37:44;27.45;;;20.45;;
68806;SDS011;55800;54.272;18.558;2023-08-20T05:40:14;25.17;;;20.38;;
68806;SDS011;55800;54.272;18.558;2023-08-20T05:42:44;26.55;;;20.38;;
68806;SDS011;55800;54.272;18.558;2023-08-20T05:45:16;29.45;;;20.38;;
68806;SDS011;55800;54.272;18.558;2023-08-20T05:47:48;29.02;;;18.90;;
68806;SDS011;55800;54.272;18.558;2023-08-20T05:50:17;21.42;;;19.13;;
68806;SDS011;55800;54.272;18.558;2023-08-20T05:52:48;25.05;;;19.63;;
68806;SDS011;55800;54.272;18.558;2023-08-20T05:55:17;21.92;;;17.73;;
68806;SDS011;55800;54.272;18.558;2023-08-20T05:57:47;19.85;;;16.75;;
68806;SDS011;55800;54.272;18.558;2023-08-20T06:00:17;21.80;;;17.77;;
68806;SDS011;55800;54.272;18.558;2023-08-20T06:02:47;22.50;;;18.35;;
68806;SDS011;55800;54.272;18.558;2023-08-20T06:05:17;23.08;;;18.27;;
68806;SDS011;55800;54.272;18.558;2023-08-20T06:07:48;23.02;;;17.95;;
68806;SDS011;55800;54.272;18.558;2023-08-20T06:10:17;24.17;;;17.80;;
68806;SDS011;55800;54.272;18.558;2023-08-20T06:12:47;20.25;;;17.10;;
68806;SDS011;55800;54.272;18.558;2023-08-20T06:15:16;24.88;;;16.83;;
68806;SDS011;55800;54.272;18.558;2023-08-20T06:17:46;22.50;;;18.48;;
68806;SDS011;55800;54.272;18.558;2023-08-20T06:20:15;20.60;;;17.58;;
68806;SDS011;55800;54.272;18.558;2023-08-20T06:22:47;21.27;;;18.10;;
68806;SDS011;55800;54.272;18.558;2023-08-20T06:25:16;20.70;;;17.77;;
68806;SDS011;55800;54.272;18.558;2023-08-20T06:27:46;19.83;;;16.40;;
68806;SDS011;55800;54.272;18.558;2023-08-20T06:30:15;22.05;;;16.35;;
68806;SDS011;55800;54.272;18.558;2023-08-20T06:32:45;21.55;;;17.05;;
68806;SDS011;55800;54.272;18.558;2023-08-20T06:35:15;21.58;;;16.67;;
68806;SDS011;55800;54.272;18.558;2023-08-20T06:37:45;21.88;;;18.10;;
68806;SDS011;55800;54.272;18.558;2023-08-20T06:40:15;21.17;;;17.13;;
68806;SDS011;55800;54.272;18.558;2023-08-20T06:42:45;24.67;;;17.38;;
68806;SDS011;55800;54.272;18.558;2023-08-20T06:45:14;19.63;;;16.98;;
68806;SDS011;55800;54.272;18.558;2023-08-20T06:47:43;21.50;;;17.52;;
68806;SDS011;55800;54.272;18.558;2023-08-20T06:50:13;20.15;;;16.98;;
68806;SDS011;55800;54.272;18.558;2023-08-20T06:52:42;21.02;;;17.48;;
68806;SDS011;55800;54.272;18.558;2023-08-20T06:55:13;20.67;;;16.73;;
68806;SDS011;55800;54.272;18.558;2023-08-20T06:57:43;20.05;;;17.27;;
68806;SDS011;55800;54.272;18.558;2023-08-20T07:00:12;22.30;;;16.98;;
68806;SDS011;55800;54.272;18.558;2023-08-20T07:02:43;21.65;;;16.98;;
68806;SDS011;55800;54.272;18.558;2023-08-20T07:05:12;20.80;;;17.52;;
68806;SDS011;55800;54.272;18.558;2023-08-20T07:07:43;17.75;;;15.68;;
68806;SDS011;55800;54.272;18.558;2023-08-20T07:10:14;19.60;;;17.00;;
68806;SDS011;55800;54.272;18.558;2023-08-20T07:12:44;20.17;;;15.98;;
68806;SDS011;55800;54.272;18.558;2023-08-20T07:15:13;21.40;;;16.92;;
68806;SDS011;55800;54.272;18.558;2023-08-20T07:17:43;22.15;;;17.95;;
68806;SDS011;55800;54.272;18.558;2023-08-20T07:20:12;20.20;;;15.93;;
68806;SDS011;55800;54.272;18.558;2023-08-20T07:22:42;22.80;;;17.20;;
68806;SDS011;55800;54.272;18.558;2023-08-20T07:25:11;17.60;;;15.70;;
68806;SDS011;55800;54.272;18.558;2023-08-20T07:27:43;20.85;;;15.45;;
68806;SDS011;55800;54.272;18.558;2023-08-20T07:30:13;20.30;;;16.02;;
68806;SDS011;55800;54.272;18.558;2023-08-20T07:32:43;18.45;;;16.13;;
68806;SDS011;55800;54.272;18.558;2023-08-20T07:35:12;19.40;;;15.63;;
68806;SDS011;55800;54.272;18.558;2023-08-20T07:37:42;17.85;;;14.57;;
68806;SDS011;55800;54.272;18.558;2023-08-20T07:40:12;16.55;;;13.52;;
68806;SDS011;55800;54.272;18.558;2023-08-20T07:42:44;21.60;;;14.45;;
68806;SDS011;55800;54.272;18.558;2023-08-20T07:45:13;19.17;;;14.65;;
68806;SDS011;55800;54.272;18.558;2023-08-20T07:47:44;18.45;;;14.40;;
68806;SDS011;55800;54.272;18.558;2023-08-20T07:50:13;22.50;;;14.77;;
68806;SDS011;55800;54.272;18.558;2023-08-20T07:52:43;19.25;;;14.30;;
68806;SDS011;55800;54.272;18.558;2023-08-20T07:55:12;15.75;;;13.88;;
68806;SDS011;55800;54.272;18.558;2023-08-20T07:57:44;19.70;;;14.05;;
68806;SDS011;55800;54.272;18.558;2023-08-20T08:00:15;18.88;;;14.50;;
68806;SDS011;55800;54.272;18.558;2023-08-20T08:02:45;19.77;;;13.23;;
68806;SDS011;55800;54.272;18.558;2023-08-20T08:05:14;16.92;;;13.80;;
68806;SDS011;55800;54.272;18.558;2023-08-20T08:07:44;15.00;;;13.18;;
68806;SDS011;55800;54.272;18.558;2023-08-20T08:10:13;16.83;;;13.70;;
68806;SDS011;55800;54.272;18.558;2023-08-20T08:12:44;18.00;;;15.30;;
68806;SDS011;55800;54.272;18.558;2023-08-20T08:15:16;15.20;;;13.50;;
68806;SDS011;55800;54.272;18.558;2023-08-20T08:17:51;18.17;;;14.38;;
68806;SDS011;55800;54.272;18.558;2023-08-20T08:20:45;15.30;;;13.13;;
68806;SDS011;55800;54.272;18.558;2023-08-20T08:23:15;15.15;;;12.82;;
68806;SDS011;55800;54.272;18.558;2023-08-20T08:25:44;17.02;;;13.27;;
68806;SDS011;55800;54.272;18.558;2023-08-20T08:28:15;17.52;;;14.15;;
68806;SDS011;55800;54.272;18.558;2023-08-20T08:30:44;14.35;;;12.75;;
68806;SDS011;55800;54.272;18.558;2023-08-20T08:33:15;19.40;;;14.15;;
68806;SDS011;55800;54.272;18.558;2023-08-20T08:35:44;16.48;;;13.63;;
68806;SDS011;55800;54.272;18.558;2023-08-20T08:38:14;16.63;;;12.77;;
68806;SDS011;55800;54.272;18.558;2023-08-20T08:40:43;17.30;;;14.52;;
68806;SDS011;55800;54.272;18.558;2023-08-20T08:43:16;18.60;;;15.07;;
68806;SDS011;55800;54.272;18.558;2023-08-20T08:45:46;18.90;;;14.68;;
68806;SDS011;55800;54.272;18.558;2023-08-20T08:48:18;15.20;;;13.55;;
68806;SDS011;55800;54.272;18.558;2023-08-20T08:50:48;15.98;;;13.50;;
68806;SDS011;55800;54.272;18.558;2023-08-20T08:53:19;16.92;;;13.48;;
68806;SDS011;55800;54.272;18.558;2023-08-20T08:55:58;16.48;;;14.05;;
68806;SDS011;55800;54.272;18.558;2023-08-20T08:58:32;20.77;;;13.63;;
68806;SDS011;55800;54.272;18.558;2023-08-20T09:01:01;25.05;;;13.98;;
68806;SDS011;55800;54.272;18.558;2023-08-20T09:03:37;16.10;;;13.70;;
68806;SDS011;55800;54.272;18.558;2023-08-20T09:06:08;15.73;;;13.63;;
68806;SDS011;55800;54.272;18.558;2023-08-20T09:08:40;17.58;;;13.80;;
68806;SDS011;55800;54.272;18.558;2023-08-20T09:11:10;15.65;;;13.93;;
68806;SDS011;55800;54.272;18.558;2023-08-20T09:14:04;15.82;;;14.05;;
68806;SDS011;55800;54.272;18.558;2023-08-20T09:16:33;18.30;;;15.27;;
68806;SDS011;55800;54.272;18.558;2023-08-20T09:19:03;19.38;;;15.40;;
68806;SDS011;55800;54.272;18.558;2023-08-20T09:21:32;16.35;;;13.85;;
68806;SDS011;55800;54.272;18.558;2023-08-20T09:24:15;19.58;;;13.40;;
68806;SDS011;55800;54.272;18.558;2023-08-20T09:26:45;19.60;;;14.18;;
68806;SDS011;55800;54.272;18.558;2023-08-20T09:29:16;17.27;;;13.90;;
68806;SDS011;55800;54.272;18.558;2023-08-20T09:31:45;17.20;;;13.98;;
68806;SDS011;55800;54.272;18.558;2023-08-20T09:34:22;14.88;;;13.27;;
68806;SDS011;55800;54.272;18.558;2023-08-20T09:37:03;19.08;;;14.63;;
68806;SDS011;55800;54.272;18.558;2023-08-20T09:39:36;25.73;;;14.90;;
68806;SDS011;55800;54.272;18.558;2023-08-20T09:42:10;15.80;;;14.20;;
68806;SDS011;55800;54.272;18.558;2023-08-20T09:44:55;24.05;;;14.85;;
68806;SDS011;55800;54.272;18.558;2023-08-20T09:47:51;15.38;;;13.88;;
68806;SDS011;55800;54.272;18.558;2023-08-20T09:50:39;13.85;;;12.27;;
68806;SDS011;55800;54.272;18.558;2023-08-20T09:53:33;15.25;;;11.65;;
68806;SDS011;55800;54.272;18.558;2023-08-20T09:56:14;15.38;;;12.13;;
68806;SDS011;55800;54.272;18.558;2023-08-20T09:58:49;16.42;;;13.57;;
68806;SDS011;55800;54.272;18.558;2023-08-20T10:01:28;16.58;;;12.88;;
68806;SDS011;55800;54.272;18.558;2023-08-20T10:04:10;14.75;;;11.77;;
68806;SDS011;55800;54.272;18.558;2023-08-20T10:07:07;16.73;;;13.75;;
68806;SDS011;55800;54.272;18.558;2023-08-20T10:09:40;15.73;;;12.65;;
68806;SDS011;55800;54.272;18.558;2023-08-20T10:13:14;18.25;;;12.45;;
68806;SDS011;55800;54.272;18.558;2023-08-20T10:15:51;17.33;;;12.73;;
68806;SDS011;55800;54.272;18.558;2023-08-20T10:18:42;19.08;;;13.05;;
68806;SDS011;55800;54.272;18.558;2023-08-20T10:21:12;13.88;;;12.07;;
68806;SDS011;55800;54.272;18.558;2023-08-20T10:23:42;15.88;;;12.35;;
68806;SDS011;55800;54.272;18.558;2023-08-20T10:26:17;15.40;;;13.07;;
68806;SDS011;55800;54.272;18.558;2023-08-20T10:28:51;19.08;;;12.82;;
68806;SDS011;55800;54.272;18.558;2023-08-20T10:32:46;15.95;;;11.90;;
68806;SDS011;55800;54.272;18.558;2023-08-20T10:35:46;17.10;;;13.07;;
68806;SDS011;55800;54.272;18.558;2023-08-20T10:38:22;17.92;;;13.90;;
68806;SDS011;55800;54.272;18.558;2023-08-20T10:40:52;14.25;;;12.75;;
68806;SDS011;55800;54.272;18.558;2023-08-20T10:43:27;15.40;;;13.30;;
68806;SDS011;55800;54.272;18.558;2023-08-20T10:46:05;13.07;;;11.68;;
68806;SDS011;55800;54.272;18.558;2023-08-20T10:48:48;14.47;;;12.33;;
68806;SDS011;55800;54.272;18.558;2023-08-20T10:51:26;17.77;;;13.32;;
68806;SDS011;55800;54.272;18.558;2023-08-20T10:54:03;13.50;;;11.85;;
68806;SDS011;55800;54.272;18.558;2023-08-20T10:56:38;16.67;;;12.90;;
68806;SDS011;55800;54.272;18.558;2023-08-20T10:59:09;15.15;;;12.10;;
68806;SDS011;55800;54.272;18.558;2023-08-20T11:01:45;16.23;;;12.73;;
68806;SDS011;55800;54.272;18.558;2023-08-20T11:04:15;14.52;;;12.77;;
68806;SDS011;55800;54.272;18.558;2023-08-20T11:06:49;16.13;;;12.20;;
68806;SDS011;55800;54.272;18.558;2023-08-20T11:09:21;14.38;;;12.52;;
68806;SDS011;55800;54.272;18.558;2023-08-20T11:11:52;18.08;;;13.32;;
68806;SDS011;55800;54.272;18.558;2023-08-20T11:15:00;18.52;;;12.02;;
68806;SDS011;55800;54.272;18.558;2023-08-20T11:18:08;19.58;;;12.15;;
68806;SDS011;55800;54.272;18.558;2023-08-20T11:20:58;22.73;;;13.82;;
68806;SDS011;55800;54.272;18.558;2023-08-20T11:23:37;20.17;;;13.57;;
68806;SDS011;55800;54.272;18.558;2023-08-20T11:26:13;28.65;;;14.18;;
68806;SDS011;55800;54.272;18.558;2023-08-20T11:28:55;15.95;;;8.95;;
68806;SDS011;55800;54.272;18.558;2023-08-20T11:31:26;18.85;;;8.85;;
68806;SDS011;55800;54.272;18.558;2023-08-20T11:33:59;16.63;;;8.30;;
68806;SDS011;55800;54.272;18.558;2023-08-20T11:36:31;10.13;;;6.30;;
68806;SDS011;55800;54.272;18.558;2023-08-20T11:39:02;13.98;;;8.20;;
68806;SDS011;55800;54.272;18.558;2023-08-20T11:41:31;16.85;;;8.93;;
68806;SDS011;55800;54.272;18.558;2023-08-20T11:44:04;14.73;;;8.63;;
68806;SDS011;55800;54.272;18.558;2023-08-20T11:46:33;16.70;;;7.93;;
68806;SDS011;55800;54.272;18.558;2023-08-20T11:51:41;11.85;;;7.75;;
68806;SDS011;55800;54.272;18.558;2023-08-20T11:54:14;12.95;;;7.93;;
68806;SDS011;55800;54.272;18.558;2023-08-20T11:56:44;10.63;;;7.43;;
68806;SDS011;55800;54.272;18.558;2023-08-20T11:59:16;16.73;;;9.43;;
68806;SDS011;55800;54.272;18.558;2023-08-20T12:01:49;14.57;;;7.68;;
68806;SDS011;55800;54.272;18.558;2023-08-20T12:04:23;13.57;;;7.95;;
68806;SDS011;55800;54.272;18.558;2023-08-20T12:07:03;12.98;;;7.78;;
68806;SDS011;55800;54.272;18.558;2023-08-20T12:09:35;11.95;;;7.57;;
68806;SDS011;55800;54.272;18.558;2023-08-20T12:12:05;11.32;;;7.13;;
68806;SDS011;55800;54.272;18.558;2023-08-20T12:14:36;13.13;;;9.07;;
68806;SDS011;55800;54.272;18.558;2023-08-20T12:17:06;12.18;;;10.13;;
68806;SDS011;55800;54.272;18.558;2023-08-20T12:19:36;14.90;;;9.52;;
68806;SDS011;55800;54.272;18.558;2023-08-20T12:22:06;12.20;;;9.82;;
68806;SDS011;55800;54.272;18.558;2023-08-20T12:25:00;14.73;;;10.30;;
68806;SDS011;55800;54.272;18.558;2023-08-20T12:27:38;15.95;;;10.98;;
68806;SDS011;55800;54.272;18.558;2023-08-20T12:30:49;14.68;;;10.80;;
68806;SDS011;55800;54.272;18.558;2023-08-20T12:33:37;13.95;;;10.65;;
68806;SDS011;55800;54.272;18.558;2023-08-20T12:36:50;14.50;;;10.40;;
68806;SDS011;55800;54.272;18.558;2023-08-20T12:39:19;14.73;;;11.10;;
68806;SDS011;55800;54.272;18.558;2023-08-20T12:44:43;15.70;;;12.25;;
68806;SDS011;55800;54.272;18.558;2023-08-20T12:47:13;12.98;;;10.82;;
68806;SDS011;55800;54.272;18.558;2023-08-20T12:49:55;14.13;;;9.93;;
68806;SDS011;55800;54.272;18.558;2023-08-20T12:52:24;14.50;;;10.05;;
68806;SDS011;55800;54.272;18.558;2023-08-20T12:54:54;12.07;;;9.15;;
68806;SDS011;55800;54.272;18.558;2023-08-20T12:57:25;13.30;;;10.18;;
68806;SDS011;55800;54.272;18.558;2023-08-20T12:59:54;14.63;;;10.57;;
68806;SDS011;55800;54.272;18.558;2023-08-20T13:02:34;15.55;;;11.73;;
68806;SDS011;55800;54.272;18.558;2023-08-20T13:05:05;14.43;;;11.70;;
68806;SDS011;55800;54.272;18.558;2023-08-20T13:07:36;13.48;;;11.35;;
68806;SDS011;55800;54.272;18.558;2023-08-20T13:10:06;12.25;;;10.68;;
68806;SDS011;55800;54.272;18.558;2023-08-20T13:12:41;14.40;;;12.02;;
68806;SDS011;55800;54.272;18.558;2023-08-20T13:15:16;16.63;;;13.40;;
68806;SDS011;55800;54.272;18.558;2023-08-20T13:18:02;18.05;;;14.27;;
68806;SDS011;55800;54.272;18.558;2023-08-20T13:20:38;19.02;;;15.18;;
68806;SDS011;55800;54.272;18.558;2023-08-20T13:23:10;16.65;;;14.43;;
68806;SDS011;55800;54.272;18.558;2023-08-20T13:25:40;17.33;;;15.43;;
68806;SDS011;55800;54.272;18.558;2023-08-20T13:28:17;18.10;;;16.15;;
68806;SDS011;55800;54.272;18.558;2023-08-20T13:30:46;16.30;;;13.93;;
68806;SDS011;55800;54.272;18.558;2023-08-20T13:33:16;17.98;;;13.85;;
68806;SDS011;55800;54.272;18.558;2023-08-20T13:35:45;16.60;;;13.80;;
68806;SDS011;55800;54.272;18.558;2023-08-20T13:38:15;13.35;;;11.75;;
68806;SDS011;55800;54.272;18.558;2023-08-20T13:40:45;13.80;;;12.07;;
68806;SDS011;55800;54.272;18.558;2023-08-20T13:43:17;17.60;;;11.60;;
68806;SDS011;55800;54.272;18.558;2023-08-20T13:45:48;16.83;;;11.68;;
68806;SDS011;55800;54.272;18.558;2023-08-20T13:48:19;13.60;;;11.45;;
68806;SDS011;55800;54.272;18.558;2023-08-20T13:51:06;15.25;;;11.02;;
68806;SDS011;55800;54.272;18.558;2023-08-20T13:53:53;13.27;;;10.93;;
68806;SDS011;55800;54.272;18.558;2023-08-20T13:56:36;14.90;;;10.00;;
68806;SDS011;55800;54.272;18.558;2023-08-20T13:59:35;11.02;;;9.88;;
68806;SDS011;55800;54.272;18.558;2023-08-20T14:02:10;12.90;;;9.18;;
68806;SDS011;55800;54.272;18.558;2023-08-20T14:04:43;14.27;;;9.93;;
68806;SDS011;55800;54.272;18.558;2023-08-20T14:07:17;12.10;;;8.25;;
68806;SDS011;55800;54.272;18.558;2023-08-20T14:10:34;10.25;;;8.25;;
68806;SDS011;55800;54.272;18.558;2023-08-20T14:13:18;12.65;;;8.77;;
68806;SDS011;55800;54.272;18.558;2023-08-20T14:16:17;11.10;;;8.50;;
68806;SDS011;55800;54.272;18.558;2023-08-20T14:19:23;9.65;;;7.63;;
68806;SDS011;55800;54.272;18.558;2023-08-20T14:21:53;10.85;;;8.00;;
68806;SDS011;55800;54.272;18.558;2023-08-20T14:24:22;10.52;;;8.50;;
68806;SDS011;55800;54.272;18.558;2023-08-20T14:26:51;9.80;;;7.07;;
68806;SDS011;55800;54.272;18.558;2023-08-20T14:29:21;8.73;;;7.75;;
68806;SDS011;55800;54.272;18.558;2023-08-20T14:34:56;10.85;;;7.70;;
68806;SDS011;55800;54.272;18.558;2023-08-20T14:37:27;9.75;;;8.23;;
68806;SDS011;55800;54.272;18.558;2023-08-20T14:39:58;11.20;;;7.95;;
68806;SDS011;55800;54.272;18.558;2023-08-20T14:42:28;11.02;;;8.32;;
68806;SDS011;55800;54.272;18.558;2023-08-20T14:44:57;11.38;;;7.78;;
68806;SDS011;55800;54.272;18.558;2023-08-20T14:47:27;9.63;;;7.40;;
68806;SDS011;55800;54.272;18.558;2023-08-20T14:49:57;9.70;;;8.05;;
68806;SDS011;55800;54.272;18.558;2023-08-20T14:52:29;8.43;;;7.50;;
68806;SDS011;55800;54.272;18.558;2023-08-20T14:54:58;10.90;;;7.28;;